Currently 44°F in Anza, California, USA
44°F
44°F / 23°F
2 mph N
0.00"
Saturday, February 23, 2019 9:43 AM PST

Anza, California Weather Summary
Last 36 Hours

Temperature Winds Hourly Humidity Dewpoint
Time Report Norm Report Norm Max Gusts Precip. Rpt. Norm Rpt. Norm Pressure
1Sat 09:43 AM  44.0°F  52°F  2 mph N  9 mph  10 mph  0.00"  47%  57%  24°F  36°F  N/A
2Sat 09:38 AM  44.0°F  51°F  1 mph N  9 mph  10 mph  ----  47%  57%  24°F  36°F  N/A
Sat 09:00 AM  43.4°F  50°F  4 mph S  8 mph  8 mph  0.00"  52%  61%  26°F  36°F  N/A
Sat 08:00 AM  35.6°F  46°F  calm  6 mph  1 mph  0.00"  85%  67%  31°F  35°F  N/A
Sat 07:00 AM  25.4°F  39°F  calm  5 mph  4 mph  0.00"  97%  74%  25°F  32°F  N/A
3Sat 06:39 AM  23.2°F  38°F  calm  4 mph  1 mph  ----  97%  76%  23°F  31°F  N/A
Sat 06:00 AM  23.7°F  38°F  calm  4 mph  4 mph  0.00"  97%  76%  23°F  31°F  N/A
Sat 05:00 AM  24.6°F  39°F  calm  5 mph  5 mph  0.00"  98%  75%  24°F  31°F  N/A
Sat 04:00 AM  24.5°F  39°F  calm  4 mph  3 mph  0.00"  98%  75%  24°F  31°F  N/A
Sat 03:00 AM  24.4°F  39°F  calm  5 mph  none  0.00"  98%  76%  24°F  32°F  N/A
Sat 02:00 AM  25.4°F  39°F  calm  4 mph  2 mph  0.00"  97%  77%  25°F  32°F  N/A
Sat 01:00 AM  27.1°F  39°F  calm  5 mph  3 mph  0.00"  97%  78%  26°F  32°F  N/A
Sat 12:00 AM  28.8°F  39°F  calm  5 mph  4 mph  0.00"  95%  78%  28°F  33°F  N/A
Fri 11:00 PM  30.6°F  40°F  calm  4 mph  none  0.00"  96%  78%  29°F  33°F  N/A
Fri 10:00 PM  29.1°F  40°F  calm  4 mph  none  0.00"  97%  77%  28°F  33°F  N/A
Fri 09:00 PM  31.4°F  41°F  calm  5 mph  7 mph  0.00"  97%  76%  31°F  33°F  N/A
Fri 08:00 PM  32.3°F  42°F  calm  4 mph  6 mph  0.00"  97%  75%  31°F  34°F  N/A
Fri 07:00 PM  34.5°F  44°F  calm  5 mph  none  0.00"  94%  72%  33°F  35°F  N/A
Fri 06:00 PM  36.6°F  47°F  calm  6 mph  15 mph  0.00"  88%  66%  33°F  36°F  N/A
Fri 05:00 PM  40.9°F  52°F  2 mph N  7 mph  20 mph  0.00"  58%  57%  27°F  37°F  N/A
Fri 04:00 PM  42.9°F  54°F  6 mph NW  10 mph  20 mph  0.00"  62%  53%  30°F  37°F  N/A
Fri 03:00 PM  43.3°F  56°F  calm  10 mph  19 mph  0.00"  71%  50%  34°F  37°F  N/A
Fri 02:00 PM  42.5°F  57°F  13 mph NW  10 mph  20 mph  0.00"  69%  47%  33°F  36°F  N/A
Fri 01:00 PM  40.7°F  57°F  10 mph NW  11 mph  18 mph  0.01"  77%  47%  34°F  36°F  N/A
Fri 12:00 PM  38.3°F  56°F  calm  10 mph  13 mph  0.00"  84%  48%  34°F  36°F  N/A
Fri 11:00 AM  37.0°F  55°F  6 mph NW  10 mph  11 mph  0.02"  83%  50%  32°F  36°F  N/A
Fri 10:00 AM  35.5°F  53°F  calm  10 mph  none  0.03"  94%  52%  34°F  36°F  N/A
Fri 09:00 AM  34.4°F  50°F  calm  8 mph  9 mph  0.04"  95%  58%  33°F  36°F  N/A
Fri 08:00 AM  30.3°F  46°F  calm  6 mph  9 mph  0.01"  97%  65%  29°F  35°F  N/A
Fri 07:00 AM  23.3°F  40°F  calm  4 mph  8 mph  0.00"  98%  73%  23°F  31°F  N/A
Fri 06:00 AM  24.3°F  38°F  calm  4 mph  7 mph  0.00"  99%  74%  24°F  30°F  N/A
Fri 05:00 AM  23.4°F  39°F  2 mph N  4 mph  8 mph  0.00"  99%  73%  23°F  31°F  N/A
Fri 04:00 AM  26.3°F  39°F  calm  4 mph  none  0.00"  99%  74%  26°F  31°F  N/A
Fri 03:00 AM  27.8°F  39°F  calm  5 mph  none  0.00"  99%  75%  27°F  31°F  N/A
Fri 02:00 AM  28.0°F  39°F  calm  4 mph  none  0.00"  99%  75%  28°F  32°F  N/A
Fri 01:00 AM  29.2°F  39°F  calm  4 mph  none  0.00"  99%  76%  29°F  32°F  N/A
Fri 12:00 AM  27.9°F  39°F  calm  4 mph  none  0.00"  99%  77%  28°F  32°F  N/A
Thu 11:00 PM  29.3°F  40°F  calm  4 mph  none  0.00"  100%  77%  29°F  33°F  N/A
Thu 10:00 PM  29.3°F  40°F  calm  4 mph  none  0.00"  100%  75%  29°F  32°F  N/A

  1. Current weather data. No green row appears if the current weather data is also the high or low for the current day.
  2. High temperature for the current day.
  3. Low temperature for the current day.

The Anza, California weather pages are a service of WeatherCurrents. The Anza Valley is southwestern Riverside County, east of Temecula and Aguanga, south of Mount San Jacinto and west of Mount Santa Rosa.
Copyright ©Sat Feb 23 09:44:17 PST 2019  WeatherCurrents. All rights reserved. - Submit questions and comments - Privacy Policy

This page automatically refreshes every 10 minutes.